Lebanon, Nebraska
Current Conditions -  °F | °C
As of 8:53 AM on Wednesday 26 Nov 2014 (Local Time) from KMCK Reporting Station
Scattered Clouds Scattered Clouds  
Wind Chill: 21°   Ceiling: Unl
Heat Index: 33°   Visibility: 10mi
Dew Point: 20°   Wind: 22mph
Humidity: 59%   Direction: 340°NNW
Pressure: 30.21"   Gusts: 29mph
Location:  40.05°N, 100.28°W
Report Text: KMCK 261453Z AUTO 34019G25KT 10SM SCT110 01/M07 A3021 RMK AO2 PK WND 33027/1402 SLP244 T00061067 53034
Loading
Personal Weather Stations






























Interactive Weather Map New forecast layout! Learn more

10-Day Weather Forecast

Advertisements
Track Severe Weather on mobile